Time;durP1;ratioP1;P1;durP2;ratioP2;P2;SDS_P1;SDS_P2;PMS_P1;PMS_P2;Temp;Humidity;BMP_temperature;BMP_pressure;BME280_temperature;BME280_humidity;BME280_pressure;Samples;Min_cycle;Max_cycle;Signal;HPM_P1;HPM_P2
2023/05/06 00:00:44;;;;;;;;;;;;;;;14.30;100.00;96562.56;5047663;28;19965;-76
2023/05/06 00:03:09;;;;;;;;;;;;;;;14.30;100.00;96554.63;5047597;28;19957;-75
2023/05/06 00:05:35;;;;;;;;;;;;;;;14.28;100.00;96547.97;5047707;28;19964;-77
2023/05/06 00:08:01;;;;;;;;;;;;;;;14.26;100.00;96548.25;5047962;28;19996;-76
2023/05/06 00:10:27;;;;;;;;;;;;;;;14.26;100.00;96557.97;5047688;28;20018;-77
2023/05/06 00:12:53;;;;;;;;;;;;;;;14.24;100.00;96544.22;5047630;28;20147;-72
2023/05/06 00:15:19;;;;;;;;;;;;;;;14.21;100.00;96545.50;5047133;28;19958;-70
2023/05/06 00:17:45;;;;;;;;;;;;;;;14.19;100.00;96539.66;5047156;28;19959;-70
2023/05/06 00:20:11;;;;;;;;;;;;;;;14.15;100.00;96536.72;5047105;28;19996;-70
2023/05/06 00:22:37;;;;;;;;;;;;;;;14.14;100.00;96545.66;5047088;28;19963;-70
2023/05/06 00:25:03;;;;;;;;;;;;;;;14.11;100.00;96546.16;5047207;28;19951;-70
2023/05/06 00:27:28;;;;;;;;;;;;;;;14.09;100.00;96542.94;5047062;28;20028;-71
2023/05/06 00:29:55;;;;;;;;;;;;;;;14.08;100.00;96554.50;5047094;28;19954;-64
2023/05/06 00:32:21;;;;;;;;;;;;;;;14.07;100.00;96546.84;5047238;28;19958;-76
2023/05/06 00:34:47;;;;;;;;;;;;;;;14.05;100.00;96549.72;5046725;28;19955;-64
2023/05/06 00:37:13;;;;;;;;;;;;;;;14.04;100.00;96556.03;5046609;28;19957;-65
2023/05/06 00:39:39;;;;;;;;;;;;;;;14.02;100.00;96553.63;5047181;28;19994;-64
2023/05/06 00:42:05;;;;;;;;;;;;;;;14.02;100.00;96553.63;5046913;28;19995;-64
2023/05/06 00:44:30;;;;;;;;;;;;;;;14.02;100.00;96558.88;5045970;28;19958;-65
2023/05/06 00:46:57;;;;;;;;;;;;;;;14.00;100.00;96547.78;5045472;28;19967;-64
2023/05/06 00:49:24;;;;;;;;;;;;;;;13.97;100.00;96547.47;5046670;28;19955;-71
2023/05/06 00:51:52;;;;;;;;;;;;;;;13.95;100.00;96550.34;5046591;28;20020;-72
2023/05/06 00:54:18;;;;;;;;;;;;;;;13.93;100.00;96546.34;5046549;28;20126;-72
2023/05/06 00:56:44;;;;;;;;;;;;;;;13.89;100.00;96546.00;5046563;28;19957;-73
2023/05/06 00:59:10;;;;;;;;;;;;;;;13.88;100.00;96533.06;5046596;28;20044;-73
2023/05/06 01:01:36;;;;;;;;;;;;;;;13.86;100.00;96541.22;5046533;28;20024;-73
2023/05/06 01:04:02;;;;;;;;;;;;;;;13.84;100.00;96529.28;5046513;28;19954;-73
2023/05/06 01:06:33;;;;;;;;;;;;;;;13.82;100.00;96529.53;5045968;28;20154;-73
2023/05/06 01:09:04;;;;;;;;;;;;;;;13.80;100.00;96536.88;5046041;28;19951;-71
2023/05/06 01:11:30;;;;;;;;;;;;;;;13.78;100.00;96539.75;5046380;28;19953;-65
2023/05/06 01:14:03;;;;;;;;;;;;;;;13.76;100.00;96531.28;5046164;28;19980;-65
2023/05/06 01:16:30;;;;;;;;;;;;;;;13.73;100.00;96536.22;5045644;28;19961;-66
2023/05/06 01:18:58;;;;;;;;;;;;;;;13.69;100.00;96543.81;5046068;28;19957;-65
2023/05/06 01:21:31;;;;;;;;;;;;;;;13.65;100.00;96540.03;5046275;28;20125;-66
2023/05/06 01:23:57;;;;;;;;;;;;;;;13.60;100.00;96543.34;5046121;28;19958;-65
2023/05/06 01:26:23;;;;;;;;;;;;;;;13.58;100.00;96542.00;5046063;28;19976;-71
2023/05/06 01:28:49;;;;;;;;;;;;;;;13.53;100.00;96537.44;5045563;28;20124;-75
2023/05/06 01:31:22;;;;;;;;;;;;;;;13.48;100.00;96537.34;5046329;28;20209;-75
2023/05/06 01:34:04;;;;;;;;;;;;;;;13.46;100.00;96546.50;5046170;28;20149;-76
2023/05/06 01:36:30;;;;;;;;;;;;;;;13.41;100.00;96544.56;5045594;28;19962;-76
2023/05/06 01:39:02;;;;;;;;;;;;;;;13.38;100.00;96548.47;5045617;28;19981;-76
2023/05/06 01:41:30;;;;;;;;;;;;;;;13.36;100.00;96547.13;5045723;28;19970;-76
2023/05/06 01:43:57;;;;;;;;;;;;;;;13.31;100.00;96544.34;5045838;28;20215;-74
2023/05/06 01:46:24;;;;;;;;;;;;;;;13.25;100.00;96543.44;5045144;28;19974;-85
2023/05/06 01:48:52;;;;;;;;;;;;;;;13.24;100.00;96548.94;5045677;28;19950;-85
2023/05/06 01:51:19;;;;;;;;;;;;;;;13.20;100.00;96549.38;5045589;28;20113;-84
2023/05/06 01:53:45;;;;;;;;;;;;;;;13.18;100.00;96553.28;5045942;28;19994;-84
2023/05/06 01:56:11;;;;;;;;;;;;;;;13.14;100.00;96560.03;5045128;28;20250;-85
2023/05/06 01:58:37;;;;;;;;;;;;;;;13.12;100.00;96551.56;5045096;28;19955;-85
2023/05/06 02:01:03;;;;;;;;;;;;;;;13.10;100.00;96557.09;5045173;28;20027;-85
2023/05/06 02:03:29;;;;;;;;;;;;;;;13.07;100.00;96557.53;5045108;28;19958;-79
2023/05/06 02:05:55;;;;;;;;;;;;;;;13.06;100.00;96544.59;5044760;28;19985;-72
2023/05/06 02:08:20;;;;;;;;;;;;;;;13.03;100.00;96537.97;5043834;28;20261;-72
2023/05/06 02:10:46;;;;;;;;;;;;;;;13.03;100.00;96545.88;5045178;28;19957;-72
2023/05/06 02:13:12;;;;;;;;;;;;;;;13.01;100.00;96540.03;5045106;28;19954;-72
2023/05/06 02:15:38;;;;;;;;;;;;;;;13.00;100.00;96544.50;5045136;28;19953;-73
2023/05/06 02:18:04;;;;;;;;;;;;;;;13.01;100.00;96550.56;5045194;28;19957;-72
2023/05/06 02:20:30;;;;;;;;;;;;;;;13.00;100.00;96541.06;5045055;28;19962;-82
2023/05/06 02:22:56;;;;;;;;;;;;;;;12.99;100.00;96547.34;5043572;28;19945;-66
2023/05/06 02:25:21;;;;;;;;;;;;;;;12.97;100.00;96559.94;5045262;28;19961;-85
2023/05/06 02:27:47;;;;;;;;;;;;;;;12.98;100.00;96558.94;5044788;28;19967;-85
2023/05/06 02:30:13;;;;;;;;;;;;;;;12.96;100.00;96551.25;5044554;28;20021;-85
2023/05/06 02:32:40;;;;;;;;;;;;;;;12.93;100.00;96545.63;5044580;28;19951;-85
2023/05/06 02:35:06;;;;;;;;;;;;;;;12.90;100.00;96539.00;5043251;28;19958;-85
2023/05/06 02:37:32;;;;;;;;;;;;;;;12.88;100.00;96545.53;5044612;28;19955;-84
2023/05/06 02:39:57;;;;;;;;;;;;;;;12.86;100.00;96548.41;5044809;28;19960;-79
2023/05/06 02:42:23;;;;;;;;;;;;;;;12.85;100.00;96549.44;5044700;28;19963;-69
2023/05/06 02:44:49;;;;;;;;;;;;;;;12.83;100.00;96545.41;5044794;28;19962;-69
2023/05/06 02:47:15;;;;;;;;;;;;;;;12.83;100.00;96548.03;5044701;28;19963;-69
2023/05/06 02:49:41;;;;;;;;;;;;;;;12.80;100.00;96536.94;5044676;28;20268;-70
2023/05/06 02:52:07;;;;;;;;;;;;;;;12.78;100.00;96532.94;5044100;28;19939;-70
2023/05/06 02:54:32;;;;;;;;;;;;;;;12.77;100.00;96528.72;5044186;28;20022;-70
2023/05/06 02:56:58;;;;;;;;;;;;;;;12.74;100.00;96532.59;5044571;28;19948;-70
2023/05/06 02:59:24;;;;;;;;;;;;;;;12.70;100.00;96533.28;5044242;28;19960;-79
2023/05/06 03:01:50;;;;;;;;;;;;;;;12.66;100.00;96538.22;5043218;28;19958;-85
2023/05/06 03:04:16;;;;;;;;;;;;;;;12.63;100.00;96535.25;5043957;28;19962;-86
2023/05/06 03:06:42;;;;;;;;;;;;;;;12.57;100.00;96529.84;5044167;28;19960;-85
2023/05/06 03:09:08;;;;;;;;;;;;;;;12.53;100.00;96526.06;5046178;28;20133;-85
2023/05/06 03:11:34;;;;;;;;;;;;;;;12.50;100.00;96531.00;5048464;28;19957;-86
2023/05/06 03:14:00;;;;;;;;;;;;;;;12.46;100.00;96530.66;5048585;28;19962;-85
2023/05/06 03:16:26;;;;;;;;;;;;;;;12.43;100.00;96527.66;5048476;28;19962;-85
2023/05/06 03:18:52;;;;;;;;;;;;;;;12.37;100.00;96524.13;5048497;28;19963;-69
2023/05/06 03:21:17;;;;;;;;;;;;;;;12.33;100.00;96526.41;5046955;28;19962;-70
2023/05/06 03:23:43;;;;;;;;;;;;;;;12.29;100.00;96514.75;5047801;28;19941;-69
2023/05/06 03:26:09;;;;;;;;;;;;;;;12.26;100.00;96525.69;5047829;28;19973;-70
2023/05/06 03:28:35;;;;;;;;;;;;;;;12.24;100.00;96524.31;5048279;28;19954;-70
2023/05/06 03:31:01;;;;;;;;;;;;;;;12.21;100.00;96525.59;5047908;28;19956;-69
2023/05/06 03:33:27;;;;;;;;;;;;;;;12.16;100.00;96525.47;5047858;28;19951;-70
2023/05/06 03:35:53;;;;;;;;;;;;;;;12.14;100.00;96527.53;5047895;28;19954;-71
2023/05/06 03:38:19;;;;;;;;;;;;;;;12.09;100.00;96527.38;5047935;28;19956;-69
2023/05/06 03:40:44;;;;;;;;;;;;;;;12.09;100.00;96535.28;5047823;28;19955;-70
2023/05/06 03:43:10;;;;;;;;;;;;;;;12.07;100.00;96529.44;5047913;28;20132;-69
2023/05/06 03:45:36;;;;;;;;;;;;;;;12.05;100.00;96532.28;5047850;28;19963;-70
2023/05/06 03:48:02;;;;;;;;;;;;;;;12.02;100.00;96529.31;5047798;28;19970;-69
2023/05/06 03:50:28;;;;;;;;;;;;;;;11.98;100.00;96535.00;5047857;28;19960;-70
2023/05/06 03:52:54;;;;;;;;;;;;;;;11.94;100.00;96530.44;5047278;28;20015;-78
2023/05/06 03:55:20;;;;;;;;;;;;;;;11.92;100.00;96533.28;5047623;28;19985;-80
2023/05/06 03:57:45;;;;;;;;;;;;;;;11.90;100.00;96534.53;5047948;28;20313;-79
2023/05/06 04:00:11;;;;;;;;;;;;;;;11.87;100.00;96525.25;5047358;28;19961;-80
2023/05/06 04:02:37;;;;;;;;;;;;;;;11.85;100.00;96537.81;5047354;28;20110;-80
2023/05/06 04:05:03;;;;;;;;;;;;;;;11.82;100.00;96535.59;5047339;28;20000;-80
2023/05/06 04:07:29;;;;;;;;;;;;;;;11.79;100.00;96536.84;5047223;28;19964;-80
2023/05/06 04:09:55;;;;;;;;;;;;;;;11.77;100.00;96536.28;5047381;28;19981;-81
2023/05/06 04:12:21;;;;;;;;;;;;;;;11.75;100.00;96538.31;5047353;28;20132;-71
2023/05/06 04:14:47;;;;;;;;;;;;;;;11.74;100.00;96538.56;5047317;28;20023;-79
2023/05/06 04:17:13;;;;;;;;;;;;;;;11.71;100.00;96536.38;5047278;28;19960;-80
2023/05/06 04:19:39;;;;;;;;;;;;;;;11.68;100.00;96536.84;5047076;28;19963;-80
2023/05/06 04:22:04;;;;;;;;;;;;;;;11.63;100.00;96540.09;5046729;28;19961;-79
2023/05/06 04:24:30;;;;;;;;;;;;;;;11.63;100.00;96544.56;5047232;28;19940;-80
2023/05/06 04:26:56;;;;;;;;;;;;;;;11.59;100.00;96549.47;5047142;28;19996;-81
2023/05/06 04:29:22;;;;;;;;;;;;;;;11.57;100.00;96547.06;5046760;28;19991;-73
2023/05/06 04:31:48;;;;;;;;;;;;;;;11.54;100.00;96549.31;5046842;28;19978;-83
2023/05/06 04:34:15;;;;;;;;;;;;;;;11.53;100.00;96539.84;5046733;28;20020;-72
2023/05/06 04:36:41;;;;;;;;;;;;;;;11.51;100.00;96553.19;5047111;28;19957;-72
2023/05/06 04:39:09;;;;;;;;;;;;;;;11.52;100.00;96548.75;5046826;28;19958;-72
2023/05/06 04:41:35;;;;;;;;;;;;;;;11.56;100.00;96555.16;5046757;28;20018;-73
2023/05/06 04:44:02;;;;;;;;;;;;;;;11.61;100.00;96551.88;5046824;28;20172;-73
2023/05/06 04:46:28;;;;;;;;;;;;;;;11.65;100.00;96553.81;5046760;28;19974;-74
2023/05/06 04:48:55;;;;;;;;;;;;;;;11.75;100.00;96558.56;5046840;28;19951;-72
2023/05/06 04:51:21;;;;;;;;;;;;;;;11.83;100.00;96560.09;5046199;28;19958;-80
2023/05/06 04:53:47;;;;;;;;;;;;;;;11.94;100.00;96547.00;5046268;28;20027;-79
2023/05/06 04:56:13;;;;;;;;;;;;;;;12.15;100.00;96556.19;5046905;28;19958;-80
2023/05/06 04:58:38;;;;;;;;;;;;;;;12.36;100.00;96554.06;5046695;28;19955;-80
2023/05/06 05:01:06;;;;;;;;;;;;;;;12.47;100.00;96558.53;5046246;28;19954;-80
2023/05/06 05:03:32;;;;;;;;;;;;;;;12.57;100.00;96561.41;5046290;28;19964;-81
2023/05/06 05:05:58;;;;;;;;;;;;;;;12.65;100.00;96562.91;5046185;28;19957;-72
2023/05/06 05:08:24;;;;;;;;;;;;;;;12.73;100.00;96564.44;5046261;28;19954;-73
2023/05/06 05:10:49;;;;;;;;;;;;;;;12.82;100.00;96570.94;5046057;28;19952;-84
2023/05/06 05:13:15;;;;;;;;;;;;;;;12.84;100.00;96566.25;5046336;28;19967;-86
2023/05/06 05:15:41;;;;;;;;;;;;;;;12.92;100.00;96573.81;5046256;28;20027;-84
2023/05/06 05:18:07;;;;;;;;;;;;;;;13.04;100.00;96567.72;5046308;28;19961;-84
2023/05/06 05:20:33;;;;;;;;;;;;;;;13.18;100.00;96561.19;5046404;28;20139;-83
2023/05/06 05:22:59;;;;;;;;;;;;;;;13.29;100.00;96563.06;5045790;28;19943;-85
2023/05/06 05:25:25;;;;;;;;;;;;;;;13.38;100.00;96564.28;5046404;28;19964;-70
2023/05/06 05:27:51;;;;;;;;;;;;;;;13.50;100.00;96563.44;5045626;28;19978;-80
2023/05/06 05:30:17;;;;;;;;;;;;;;;13.63;100.00;96567.63;5045718;28;19957;-80
2023/05/06 05:32:43;;;;;;;;;;;;;;;13.87;100.00;96577.06;5044944;28;20034;-80
2023/05/06 05:35:09;;;;;;;;;;;;;;;14.18;100.00;96569.72;5045707;28;20309;-80
2023/05/06 05:37:35;;;;;;;;;;;;;;;14.52;100.00;96569.75;5045652;28;19980;-81
2023/05/06 05:40:01;;;;;;;;;;;;;;;14.80;100.00;96556.50;5045280;28;19958;-80
2023/05/06 05:42:29;;;;;;;;;;;;;;;15.15;98.38;96554.59;5045684;28;20052;-81
2023/05/06 05:44:55;;;;;;;;;;;;;;;15.51;96.05;96539.97;5045758;28;20235;-67
2023/05/06 05:47:21;;;;;;;;;;;;;;;15.92;95.56;96537.81;5045628;28;19977;-66
2023/05/06 05:49:47;;;;;;;;;;;;;;;16.20;91.87;96517.44;5045575;28;19963;-66
2023/05/06 05:52:13;;;;;;;;;;;;;;;16.25;91.67;96522.75;5045580;28;19985;-65
2023/05/06 05:54:38;;;;;;;;;;;;;;;16.27;89.40;96518.00;5045821;28;20192;-66
2023/05/06 05:57:04;;;;;;;;;;;;;;;16.23;89.48;96520.38;5045668;28;20003;-66
2023/05/06 05:59:31;;;;;;;;;;;;;;;16.31;91.05;96529.69;5045636;28;19954;-66
2023/05/06 06:01:57;;;;;;;;;;;;;;;16.47;89.35;96514.75;5044038;28;19951;-68
2023/05/06 06:04:23;;;;;;;;;;;;;;;16.53;89.70;96524.31;5045106;28;20026;-85
2023/05/06 06:06:49;;;;;;;;;;;;;;;16.62;87.21;96506.09;5045019;28;19972;-85
2023/05/06 06:09:15;;;;;;;;;;;;;;;16.64;87.96;96517.25;5044726;28;19964;-85
2023/05/06 06:11:41;;;;;;;;;;;;;;;16.75;86.59;96518.88;5045092;28;19962;-85
2023/05/06 06:14:07;;;;;;;;;;;;;;;16.96;88.21;96529.66;5045120;28;19960;-85
2023/05/06 06:16:35;;;;;;;;;;;;;;;17.20;85.45;96500.91;5045079;28;20074;-85
2023/05/06 06:19:01;;;;;;;;;;;;;;;17.28;85.31;96507.53;5045127;28;19962;-84
2023/05/06 06:21:26;;;;;;;;;;;;;;;17.44;84.36;96495.94;5044613;28;20005;-74
2023/05/06 06:23:52;;;;;;;;;;;;;;;17.56;83.44;96493.88;5081608;22;19989;-75
2023/05/06 06:26:18;;;;;;;;;;;;;;;17.60;84.51;96507.41;5049862;28;19957;-75
2023/05/06 06:28:44;;;;;;;;;;;;;;;17.74;85.54;96511.13;5084624;28;19972;-75
2023/05/06 06:31:10;;;;;;;;;;;;;;;17.73;82.86;96488.34;5084515;28;20071;-75
2023/05/06 06:33:36;;;;;;;;;;;;;;;17.73;81.75;96493.63;5050464;28;19962;-76
2023/05/06 06:36:02;;;;;;;;;;;;;;;17.48;84.44;96520.88;5066837;28;19997;-75
2023/05/06 06:38:27;;;;;;;;;;;;;;;17.36;82.94;96510.47;5084763;28;20230;-80
2023/05/06 06:40:53;;;;;;;;;;;;;;;17.32;84.42;96521.88;5066897;28;19955;-70
2023/05/06 06:43:19;;;;;;;;;;;;;;;17.38;84.39;96526.94;5084693;28;19965;-76
2023/05/06 06:45:45;;;;;;;;;;;;;;;17.44;84.19;96519.81;5066355;28;19979;-75
2023/05/06 06:48:11;;;;;;;;;;;;;;;17.39;84.85;96528.53;5084585;28;19956;-75
2023/05/06 06:50:37;;;;;;;;;;;;;;;17.33;80.14;96492.47;5083614;28;19959;-77
2023/05/06 06:53:03;;;;;;;;;;;;;;;17.23;82.69;96525.00;5084444;28;19958;-75
2023/05/06 06:55:29;;;;;;;;;;;;;;;17.22;85.46;96538.53;5084422;28;19962;-76
2023/05/06 06:57:55;;;;;;;;;;;;;;;17.25;84.26;96514.94;5084389;28;19978;-72
2023/05/06 07:00:20;;;;;;;;;;;;;;;17.32;84.39;96525.31;5084438;28;19957;-76
2023/05/06 07:02:47;;;;;;;;;;;;;;;17.56;84.23;96524.91;5066378;28;19996;-76
2023/05/06 07:05:13;;;;;;;;;;;;;;;17.86;85.05;96540.13;5084014;28;19964;-76
2023/05/06 07:07:39;;;;;;;;;;;;;;;18.04;79.34;96497.16;5082938;28;19961;-76
2023/05/06 07:10:05;;;;;;;;;;;;;;;18.07;81.19;96508.31;5066287;28;19955;-76
2023/05/06 07:12:31;;;;;;;;;;;;;;;18.28;82.45;96525.06;5066233;28;19953;-76
2023/05/06 07:14:57;;;;;;;;;;;;;;;18.43;81.19;96504.59;5066033;28;20031;-72
2023/05/06 07:17:22;;;;;;;;;;;;;;;18.45;77.93;96488.41;5084321;28;19957;-72
2023/05/06 07:19:48;;;;;;;;;;;;;;;18.33;76.97;96483.38;5084263;28;20264;-73
2023/05/06 07:22:14;;;;;;;;;;;;;;;18.31;83.82;96538.59;5084355;28;20135;-72
2023/05/06 07:24:40;;;;;;;;;;;;;;;18.37;78.79;96502.22;5084346;28;19964;-72
2023/05/06 07:27:06;;;;;;;;;;;;;;;18.50;83.35;96538.06;5084196;28;20005;-72
2023/05/06 07:29:33;;;;;;;;;;;;;;;18.56;76.47;96489.19;5083944;28;20033;-72
2023/05/06 07:31:59;;;;;;;;;;;;;;;18.63;79.55;96514.41;5083753;28;19956;-74
2023/05/06 07:34:25;;;;;;;;;;;;;;;18.78;75.95;96478.28;5083116;28;20004;-70
2023/05/06 07:36:51;;;;;;;;;;;;;;;18.76;76.88;96489.16;5083603;28;19958;-77
2023/05/06 07:39:17;;;;;;;;;;;;;;;18.83;75.14;96480.94;5083564;28;19955;-77
2023/05/06 07:41:42;;;;;;;;;;;;;;;18.68;71.51;96447.19;5083664;28;19954;-77
2023/05/06 07:44:08;;;;;;;;;;;;;;;18.63;76.27;96503.00;5083547;28;20179;-78
2023/05/06 07:46:34;;;;;;;;;;;;;;;18.65;77.93;96509.63;5083467;28;19952;-77
2023/05/06 07:49:00;;;;;;;;;;;;;;;18.70;77.03;96498.19;5082940;28;20278;-78
2023/05/06 07:51:27;;;;;;;;;;;;;;;18.83;77.54;96500.31;5084354;28;19960;-76
2023/05/06 07:53:52;;;;;;;;;;;;;;;18.94;75.66;96490.50;5065478;28;20298;-71
2023/05/06 07:56:18;;;;;;;;;;;;;;;19.08;75.05;96490.69;5086938;28;20017;-77
2023/05/06 07:58:44;;;;;;;;;;;;;;;19.28;75.80;96492.50;5053350;28;19959;-74
2023/05/06 08:01:10;;;;;;;;;;;;;;;19.58;74.34;96488.09;5087186;28;19964;-75
2023/05/06 08:03:36;;;;;;;;;;;;;;;19.45;70.01;96449.59;5069819;28;20238;-74
2023/05/06 08:06:01;;;;;;;;;;;;;;;19.22;75.55;96494.38;5069485;28;20124;-75
2023/05/06 08:08:28;;;;;;;;;;;;;;;18.85;72.42;96484.91;5087365;28;20110;-75
2023/05/06 08:10:54;;;;;;;;;;;;;;;18.57;74.31;96494.22;5087590;28;20214;-71
2023/05/06 08:13:20;;;;;;;;;;;;;;;18.48;71.78;96474.59;5069387;28;20145;-75
2023/05/06 08:15:46;;;;;;;;;;;;;;;18.57;77.26;96520.00;5069347;28;19956;-74
2023/05/06 08:18:12;;;;;;;;;;;;;;;18.77;77.24;96514.69;5068966;28;20001;-74
2023/05/06 08:20:37;;;;;;;;;;;;;;;18.86;74.34;96499.78;5053145;28;19963;-74
2023/05/06 08:23:03;;;;;;;;;;;;;;;19.11;74.05;96495.47;5053026;28;19965;-75
2023/05/06 08:25:29;;;;;;;;;;;;;;;18.92;73.40;96489.97;5087322;28;20228;-74
2023/05/06 08:27:55;;;;;;;;;;;;;;;18.61;72.70;96487.31;5069257;28;20037;-74
2023/05/06 08:30:21;;;;;;;;;;;;;;;18.36;74.90;96511.25;5069061;28;19991;-78
2023/05/06 08:32:47;;;;;;;;;;;;;;;18.36;75.33;96514.69;5087215;28;20009;-73
2023/05/06 08:35:13;;;;;;;;;;;;;;;18.63;76.39;96524.25;5087121;28;19955;-72
2023/05/06 08:37:41;;;;;;;;;;;;;;;18.98;74.62;96511.97;5086916;28;20022;-72
2023/05/06 08:40:20;;;;;;;;;;;;;;;19.27;73.57;96499.66;5068947;28;20248;-73
2023/05/06 08:42:47;;;;;;;;;;;;;;;19.54;73.82;96498.47;5087070;28;19969;-72
2023/05/06 08:45:14;;;;;;;;;;;;;;;19.62;68.45;96465.97;5069110;28;20259;-73
2023/05/06 08:47:40;;;;;;;;;;;;;;;19.60;72.83;96508.03;5086819;28;19970;-72
2023/05/06 08:50:07;;;;;;;;;;;;;;;19.65;69.34;96478.75;5087070;28;19954;-71
2023/05/06 08:52:34;;;;;;;;;;;;;;;19.79;68.85;96476.28;5086772;28;19958;-70
2023/05/06 08:55:03;;;;;;;;;;;;;;;19.77;68.99;96472.31;5086879;28;19952;-70
2023/05/06 08:57:30;;;;;;;;;;;;;;;19.47;70.34;96479.38;5086824;28;19962;-70
2023/05/06 08:59:55;;;;;;;;;;;;;;;19.41;71.59;96502.53;5086551;28;19969;-70
2023/05/06 09:02:21;;;;;;;;;;;;;;;19.29;72.12;96506.56;5086589;28;20002;-70
2023/05/06 09:04:48;;;;;;;;;;;;;;;19.27;68.52;96456.31;5086008;28;19953;-70
2023/05/06 09:07:14;;;;;;;;;;;;;;;19.29;70.76;96490.63;5085308;28;19962;-73
2023/05/06 09:09:40;;;;;;;;;;;;;;;19.23;67.27;96455.28;5086414;28;19960;-78
2023/05/06 09:12:10;;;;;;;;;;;;;;;19.28;68.29;96468.56;5086449;28;20011;-79
2023/05/06 09:14:36;;;;;;;;;;;;;;;19.27;69.91;96480.25;5086159;28;20092;-78
2023/05/06 09:17:01;;;;;;;;;;;;;;;19.22;70.71;96489.06;5086403;28;19971;-79
2023/05/06 09:19:27;;;;;;;;;;;;;;;19.31;68.45;96452.06;5068695;28;19955;-79
2023/05/06 09:21:53;;;;;;;;;;;;;;;19.31;68.88;96475.97;5068389;28;20042;-79
2023/05/06 09:24:19;;;;;;;;;;;;;;;19.31;67.90;96461.91;5085839;28;19949;-73
2023/05/06 09:26:46;;;;;;;;;;;;;;;19.36;68.41;96462.69;5068225;28;19960;-79
2023/05/06 09:29:12;;;;;;;;;;;;;;;19.50;71.10;96489.47;5085741;28;19966;-72
2023/05/06 09:31:45;;;;;;;;;;;;;;;19.71;69.86;96476.88;5067832;28;19955;-72
2023/05/06 09:34:13;;;;;;;;;;;;;;;19.94;70.44;96480.72;5050681;28;20682;-72
2023/05/06 09:36:39;;;;;;;;;;;;;;;19.99;66.14;96445.28;5051295;28;19959;-72
2023/05/06 09:39:05;;;;;;;;;;;;;;;19.89;65.58;96450.69;5085827;28;20020;-72
2023/05/06 09:41:31;;;;;;;;;;;;;;;19.91;66.33;96467.16;5085790;28;19970;-72
2023/05/06 09:43:58;;;;;;;;;;;;;;;19.99;66.38;96470.06;5068067;28;20109;-77
2023/05/06 09:46:24;;;;;;;;;;;;;;;20.12;64.70;96465.16;5085553;28;19955;-72
2023/05/06 09:48:51;;;;;;;;;;;;;;;20.07;63.77;96512.06;5067449;28;19964;-71
2023/05/06 09:51:17;;;;;;;;;;;;;;;20.11;63.64;96514.94;5067459;28;20141;-71
2023/05/06 09:53:43;;;;;;;;;;;;;;;20.02;65.12;96524.59;5084999;28;19959;-72
2023/05/06 09:56:10;;;;;;;;;;;;;;;20.03;65.04;96524.31;5085314;28;19956;-72
2023/05/06 09:58:36;;;;;;;;;;;;;;;20.17;65.41;96518.38;5085573;28;19957;-72
2023/05/06 10:01:05;;;;;;;;;;;;;;;20.30;67.89;96539.03;5085290;28;19959;-74
2023/05/06 10:03:31;;;;;;;;;;;;;;;20.47;68.12;96536.78;5050577;28;19963;-73
2023/05/06 10:05:59;;;;;;;;;;;;;;;20.46;61.08;96492.56;5067428;28;20115;-78
2023/05/06 10:08:25;;;;;;;;;;;;;;;20.52;61.52;96493.31;5085167;28;20272;-78
2023/05/06 10:10:52;;;;;;;;;;;;;;;20.67;65.45;96519.84;5084947;28;19942;-78
2023/05/06 10:13:18;;;;;;;;;;;;;;;21.03;63.42;96500.03;5085339;28;20152;-79
2023/05/06 10:15:45;;;;;;;;;;;;;;;21.34;61.11;96489.81;5084973;28;19952;-78
2023/05/06 10:18:14;;;;;;;;;;;;;;;21.43;59.50;96485.44;5084604;28;20150;-79
2023/05/06 10:20:41;;;;;;;;;;;;;;;21.35;58.41;96486.06;5084799;28;20140;-78
2023/05/06 10:23:06;;;;;;;;;;;;;;;21.05;59.02;96485.34;5085096;28;19977;-80
2023/05/06 10:25:41;;;;;;;;;;;;;;;20.76;58.17;96485.38;5084966;28;20244;-80
2023/05/06 10:28:07;;;;;;;;;;;;;;;20.53;62.27;96500.22;5084825;28;20055;-81
2023/05/06 10:30:34;;;;;;;;;;;;;;;20.76;61.90;96498.72;5085028;28;19952;-81
2023/05/06 10:33:10;;;;;;;;;;;;;;;21.11;62.32;96494.09;5085000;28;19973;-80
2023/05/06 10:35:39;;;;;;;;;;;;;;;21.34;59.07;96483.69;5084932;28;19958;-80
2023/05/06 10:38:31;;;;;;;;;;;;;;;21.11;60.34;96487.97;5084857;28;19957;-78
2023/05/06 10:40:58;;;;;;;;;;;;;;;20.79;59.92;96478.69;5082435;28;19955;-79
2023/05/06 10:43:25;;;;;;;;;;;;;;;20.60;60.11;96486.59;5084575;28;19959;-79
2023/05/06 10:46:04;;;;;;;;;;;;;;;20.34;60.76;96486.00;5084788;28;19954;-79
2023/05/06 10:48:30;;;;;;;;;;;;;;;20.20;62.55;96493.84;5084781;28;19965;-80
2023/05/06 10:51:15;;;;;;;;;;;;;;;20.23;64.21;96504.72;5084976;28;19954;-80
2023/05/06 10:54:01;;;;;;;;;;;;;;;20.27;63.91;96491.66;5085053;28;19960;-80
2023/05/06 10:56:31;;;;;;;;;;;;;;;20.30;63.30;96484.97;5077166;28;19956;-70
2023/05/06 10:59:03;;;;;;;;;;;;;;;20.43;64.37;96494.97;5084306;28;19952;-73
2023/05/06 11:01:28;;;;;;;;;;;;;;;20.58;62.35;96473.56;5050146;28;20239;-73
2023/05/06 11:03:54;;;;;;;;;;;;;;;20.62;63.86;96479.13;5049668;28;20029;-73
2023/05/06 11:06:33;;;;;;;;;;;;;;;20.71;63.46;96474.00;5084375;28;19979;-72
2023/05/06 11:09:00;;;;;;;;;;;;;;;20.55;55.35;96455.44;5066323;28;20153;-73
2023/05/06 11:11:45;;;;;;;;;;;;;;;20.38;58.03;96463.06;5084423;28;20146;-72
2023/05/06 11:14:14;;;;;;;;;;;;;;;20.40;59.43;96474.25;5084664;28;19959;-79
2023/05/06 11:16:49;;;;;;;;;;;;;;;20.57;60.15;96468.50;5084022;28;19957;-79
2023/05/06 11:19:20;;;;;;;;;;;;;;;20.81;57.65;96450.69;5084133;28;20136;-77
2023/05/06 11:21:46;;;;;;;;;;;;;;;21.10;57.86;96449.81;5066434;28;19959;-77
2023/05/06 11:24:13;;;;;;;;;;;;;;;21.16;56.64;96455.88;5084116;28;19995;-78
2023/05/06 11:26:39;;;;;;;;;;;;;;;21.07;56.58;96445.06;5084230;28;19949;-78
2023/05/06 11:29:06;;;;;;;;;;;;;;;20.86;57.23;96457.84;5084469;28;19966;-78
2023/05/06 11:31:39;;;;;;;;;;;;;;;20.64;56.14;96456.47;5088365;28;19956;-77
2023/05/06 11:34:06;;;;;;;;;;;;;;;20.54;56.24;96440.56;5070162;28;19941;-78
2023/05/06 11:36:32;;;;;;;;;;;;;;;20.70;56.09;96441.19;5088249;28;20243;-73
2023/05/06 11:39:04;;;;;;;;;;;;;;;20.97;56.44;96445.19;5088204;28;20233;-73
2023/05/06 11:41:29;;;;;;;;;;;;;;;21.26;55.35;96440.56;5088312;28;19956;-73
2023/05/06 11:43:55;;;;;;;;;;;;;;;21.46;52.18;96436.88;5087963;28;19979;-73
2023/05/06 11:46:22;;;;;;;;;;;;;;;21.49;55.17;96457.63;5087837;28;19993;-73
2023/05/06 11:48:49;;;;;;;;;;;;;;;21.47;55.15;96456.31;5087698;28;19965;-73
2023/05/06 11:51:15;;;;;;;;;;;;;;;21.48;55.32;96456.03;5087711;28;19959;-73
2023/05/06 11:53:41;;;;;;;;;;;;;;;21.58;54.48;96457.75;5087885;28;20153;-77
2023/05/06 11:56:07;;;;;;;;;;;;;;;21.61;53.04;96454.53;5069871;28;19954;-78
2023/05/06 11:58:32;;;;;;;;;;;;;;;21.75;56.25;96456.47;5087759;28;19962;-78
2023/05/06 12:00:59;;;;;;;;;;;;;;;21.89;55.29;96446.66;5087708;28;19960;-76
2023/05/06 12:03:27;;;;;;;;;;;;;;;21.84;54.08;96460.09;5087650;28;19965;-79
2023/05/06 12:05:53;;;;;;;;;;;;;;;21.65;53.95;96452.09;5087629;28;19956;-78
2023/05/06 12:08:19;;;;;;;;;;;;;;;21.52;56.38;96455.47;5087497;28;19981;-78
2023/05/06 12:10:46;;;;;;;;;;;;;;;21.33;52.42;96450.88;5087655;28;19957;-78
2023/05/06 12:13:13;;;;;;;;;;;;;;;21.06;55.44;96462.94;5087232;28;19955;-77
2023/05/06 12:15:39;;;;;;;;;;;;;;;21.03;57.03;96476.81;5087256;28;19958;-77
2023/05/06 12:18:05;;;;;;;;;;;;;;;21.08;57.18;96463.44;5068984;28;19971;-78
2023/05/06 12:20:33;;;;;;;;;;;;;;;21.11;56.66;96458.63;5087395;28;19953;-77
2023/05/06 12:23:05;;;;;;;;;;;;;;;21.04;56.44;96467.75;5087415;28;19952;-77
2023/05/06 12:25:31;;;;;;;;;;;;;;;21.02;56.58;96469.09;5087342;28;19955;-77
2023/05/06 12:27:57;;;;;;;;;;;;;;;21.05;57.65;96472.00;5068928;28;19969;-73
2023/05/06 12:30:30;;;;;;;;;;;;;;;21.26;56.29;96466.44;5087234;28;19940;-73
2023/05/06 12:32:58;;;;;;;;;;;;;;;21.48;56.64;96457.91;5087057;28;19953;-72
2023/05/06 12:35:27;;;;;;;;;;;;;;;21.41;53.76;96452.09;5086677;28;19950;-72
2023/05/06 12:37:54;;;;;;;;;;;;;;;21.19;53.51;96450.00;5086704;28;19964;-72
2023/05/06 12:40:19;;;;;;;;;;;;;;;21.10;55.44;96460.47;5086542;28;19956;-72